createdAt,value
2022-11-03T00:00:25.888Z,33.30
2022-11-03T00:02:32.999Z,33.97
2022-11-03T00:04:40.404Z,33.60
2022-11-03T00:06:49.430Z,34.40
2022-11-03T00:08:56.458Z,35.47
2022-11-03T00:11:07.997Z,33.97
2022-11-03T00:13:15.378Z,34.28
2022-11-03T00:15:22.508Z,34.38
2022-11-03T00:17:29.688Z,35.40
2022-11-03T00:19:37.127Z,35.25
2022-11-03T00:21:44.466Z,35.90
2022-11-03T00:23:54.049Z,36.13
2022-11-03T00:26:08.300Z,37.65
2022-11-03T00:28:15.430Z,37.50
2022-11-03T00:30:22.919Z,39.92
2022-11-03T00:32:30.199Z,39.88
2022-11-03T00:34:37.792Z,39.95
2022-11-03T00:36:46.405Z,40.70
2022-11-03T00:38:55.689Z,42.55
2022-11-03T00:41:04.048Z,38.53
2022-11-03T00:43:11.279Z,34.33
2022-11-03T00:45:18.716Z,36.42
2022-11-03T00:47:26.257Z,35.00
2022-11-03T00:49:33.232Z,33.47
2022-11-03T00:51:40.720Z,33.35
2022-11-03T00:53:48.671Z,33.15
2022-11-03T00:55:57.952Z,30.83
2022-11-03T00:58:05.083Z,30.55
2022-11-03T01:00:13.238Z,27.90
2022-11-03T01:02:20.431Z,26.30
2022-11-03T01:04:44.034Z,26.77
2022-11-03T01:06:55.569Z,26.27
2022-11-03T01:09:03.725Z,26.00
2022-11-03T01:11:31.796Z,25.55
2022-11-03T01:13:40.411Z,24.60
2022-11-03T01:15:47.747Z,22.30
2022-11-03T01:17:54.876Z,20.50
2022-11-03T01:20:02.005Z,20.98
2022-11-03T01:22:10.987Z,20.63
2022-11-03T01:24:18.748Z,19.73
2022-11-03T01:26:27.853Z,19.42
2022-11-03T01:28:36.569Z,19.45
2022-11-03T01:30:43.956Z,20.70
2022-11-03T01:32:50.982Z,19.60
2022-11-03T01:34:58.163Z,18.90
2022-11-03T01:37:05.758Z,20.83
2022-11-03T01:39:15.086Z,20.40
2022-11-03T01:41:24.730Z,20.27
2022-11-03T01:43:35.185Z,19.45
2022-11-03T01:45:42.624Z,20.20
2022-11-03T01:47:50.961Z,19.40
2022-11-03T01:50:02.668Z,18.77
2022-11-03T01:52:14.662Z,18.67
2022-11-03T01:54:26.403Z,18.02
2022-11-03T01:56:36.862Z,19.45
2022-11-03T01:58:49.882Z,19.60
2022-11-03T02:01:00.270Z,19.35
2022-11-03T02:03:09.253Z,18.08
2022-11-03T02:05:19.772Z,16.48
2022-11-03T02:07:30.892Z,18.00
2022-11-03T02:09:38.383Z,17.98
2022-11-03T02:12:01.639Z,17.05
2022-11-03T02:14:15.996Z,17.83
2022-11-03T02:16:25.169Z,18.02
2022-11-03T02:18:36.957Z,18.02
2022-11-03T02:20:45.472Z,17.75
2022-11-03T02:23:13.491Z,18.17
2022-11-03T02:25:35.469Z,17.95
2022-11-03T02:27:43.009Z,17.92
2022-11-03T02:29:50.396Z,15.98
2022-11-03T02:32:02.016Z,18.27
2022-11-03T02:34:13.976Z,16.85
2022-11-03T02:36:26.225Z,17.38
2022-11-03T02:38:37.465Z,16.88
2022-11-03T02:40:51.494Z,16.23
2022-11-03T02:42:59.906Z,14.98
2022-11-03T02:45:13.192Z,14.15
2022-11-03T02:47:23.893Z,15.15
2022-11-03T02:49:31.743Z,15.35
2022-11-03T02:51:39.397Z,15.38
2022-11-03T02:53:51.223Z,14.70
2022-11-03T02:58:19.973Z,12.70
2022-11-03T03:00:27.670Z,12.10
2022-11-03T03:02:42.171Z,11.15
2022-11-03T03:04:53.552Z,12.10
2022-11-03T03:07:04.737Z,11.73
2022-11-03T03:09:15.082Z,11.85
2022-11-03T03:11:38.795Z,13.48
2022-11-03T03:13:47.621Z,12.48
2022-11-03T03:16:06.582Z,13.13
2022-11-03T03:18:23.439Z,12.52
2022-11-03T03:20:35.485Z,12.27
2022-11-03T03:22:47.896Z,11.68
2022-11-03T03:25:01.125Z,11.32
2022-11-03T03:27:14.795Z,11.38
2022-11-03T03:29:27.407Z,11.07
2022-11-03T03:31:37.963Z,10.73
2022-11-03T03:33:48.043Z,10.30
2022-11-03T03:35:57.449Z,10.70
2022-11-03T03:38:08.213Z,10.38
2022-11-03T03:40:19.490Z,10.40
2022-11-03T03:42:31.792Z,9.82
2022-11-03T03:44:41.994Z,10.20
2022-11-03T03:46:54.553Z,10.55
2022-11-03T03:49:02.040Z,9.57
2022-11-03T03:51:10.604Z,9.95
2022-11-03T03:53:21.012Z,9.18
2022-11-03T03:55:34.294Z,9.20
2022-11-03T03:57:44.238Z,9.07
2022-11-03T03:59:51.516Z,9.75
2022-11-03T04:01:59.415Z,9.10
2022-11-03T04:04:06.753Z,9.38
2022-11-03T04:06:14.393Z,9.40
2022-11-03T04:08:21.833Z,9.25
2022-11-03T04:10:29.578Z,9.15
2022-11-03T04:12:53.654Z,9.80
2022-11-03T04:15:18.858Z,8.18
2022-11-03T04:17:42.755Z,8.40
2022-11-03T04:20:06.346Z,8.85
2022-11-03T04:22:19.467Z,7.60
2022-11-03T04:24:27.578Z,7.80
2022-11-03T04:26:34.546Z,7.65
2022-11-03T04:28:42.195Z,7.93
2022-11-03T04:30:54.594Z,7.15
2022-11-03T04:33:05.259Z,7.10
2022-11-03T04:35:19.405Z,7.32
2022-11-03T04:37:30.066Z,7.70
2022-11-03T04:39:37.660Z,7.55
2022-11-03T04:41:45.250Z,7.68
2022-11-03T04:43:53.353Z,7.80
2022-11-03T04:46:03.144Z,7.70
2022-11-03T04:48:15.702Z,8.07
2022-11-03T04:50:25.240Z,7.68
2022-11-03T04:52:34.463Z,7.30
2022-11-03T04:54:42.010Z,8.68
2022-11-03T04:56:49.139Z,7.95
2022-11-03T04:58:57.498Z,8.15
2022-11-03T05:01:08.002Z,7.60
2022-11-03T05:03:20.308Z,6.95
2022-11-03T05:05:29.537Z,7.35
2022-11-03T05:07:38.974Z,7.05
2022-11-03T05:09:46.000Z,7.57
2022-11-03T05:11:53.642Z,7.82
2022-11-03T05:14:04.358Z,8.18
2022-11-03T05:16:14.048Z,7.35
2022-11-03T05:18:25.072Z,7.47
2022-11-03T05:20:37.476Z,7.10
2022-11-03T05:22:44.757Z,7.60
2022-11-03T05:24:54.246Z,7.85
2022-11-03T05:27:03.217Z,7.38
2022-11-03T05:29:18.845Z,7.25
2022-11-03T05:31:31.914Z,7.20
2022-11-03T05:33:40.125Z,7.20
2022-11-03T05:35:47.457Z,6.57
2022-11-03T05:37:55.767Z,6.70
2022-11-03T05:40:05.405Z,6.88
2022-11-03T05:42:28.355Z,6.95
2022-11-03T05:44:38.046Z,7.03
2022-11-03T05:46:47.532Z,6.70
2022-11-03T05:48:54.969Z,7.53
2022-11-03T05:51:03.122Z,7.60
2022-11-03T05:53:22.696Z,6.88
2022-11-03T05:55:33.413Z,7.63
2022-11-03T05:57:40.747Z,6.53
2022-11-03T05:59:49.564Z,7.00
2022-11-03T06:02:01.827Z,6.75
2022-11-03T06:04:22.001Z,6.88
2022-11-03T06:06:32.541Z,6.68
2022-11-03T06:08:43.212Z,7.55
2022-11-03T06:10:55.838Z,6.72
2022-11-03T06:13:06.158Z,6.57
2022-11-03T06:15:27.763Z,6.38
2022-11-03T06:17:38.834Z,6.15
2022-11-03T06:19:49.085Z,6.15
2022-11-03T06:21:58.370Z,6.28
2022-11-03T06:24:05.877Z,6.47
2022-11-03T06:26:18.414Z,6.10
2022-11-03T06:28:28.616Z,6.00
2022-11-03T06:30:36.963Z,6.50
2022-11-03T06:32:45.796Z,6.75
2022-11-03T06:34:55.641Z,6.00
2022-11-03T06:37:12.536Z,6.93
2022-11-03T06:39:25.926Z,6.22
2022-11-03T06:43:44.487Z,6.70
2022-11-03T06:45:54.591Z,6.18
2022-11-03T06:48:06.070Z,6.25
2022-11-03T06:50:25.699Z,6.43
2022-11-03T06:52:35.913Z,6.82
2022-11-03T06:54:43.282Z,6.60
2022-11-03T06:56:50.667Z,6.95
2022-11-03T06:58:59.438Z,7.32
2022-11-03T07:01:14.502Z,7.25
2022-11-03T07:03:27.838Z,6.72
2022-11-03T07:05:36.356Z,6.82
2022-11-03T07:07:43.678Z,6.45
2022-11-03T07:09:51.423Z,7.40
2022-11-03T07:12:01.011Z,7.18
2022-11-03T07:14:15.616Z,7.00
2022-11-03T07:16:27.152Z,7.13
2022-11-03T07:18:39.148Z,6.88
2022-11-03T07:20:46.121Z,6.72
2022-11-03T07:22:55.964Z,7.03
2022-11-03T07:25:06.883Z,6.72
2022-11-03T07:27:23.691Z,7.00
2022-11-03T07:29:32.922Z,7.03
2022-11-03T07:31:40.552Z,7.10
2022-11-03T07:33:49.741Z,7.53
2022-11-03T07:36:15.894Z,7.20
2022-11-03T07:38:24.841Z,7.13
2022-11-03T07:40:35.146Z,7.38
2022-11-03T07:42:42.791Z,7.85
2022-11-03T07:44:51.052Z,7.25
2022-11-03T07:46:58.946Z,7.05
2022-11-03T07:49:10.281Z,6.97
2022-11-03T07:51:24.161Z,6.80
2022-11-03T07:53:38.975Z,6.93
2022-11-03T07:55:49.031Z,6.78
2022-11-03T07:57:56.360Z,7.03
2022-11-03T08:00:10.765Z,6.95
2022-11-03T08:02:33.096Z,7.40
2022-11-03T08:04:42.529Z,6.97
2022-11-03T08:06:50.275Z,7.88
2022-11-03T08:08:57.814Z,7.38
2022-11-03T08:11:05.408Z,7.30
2022-11-03T08:13:12.903Z,7.57
2022-11-03T08:15:20.227Z,8.07
2022-11-03T08:17:27.615Z,7.65
2022-11-03T08:19:35.002Z,7.38
2022-11-03T08:21:44.336Z,7.93
2022-11-03T08:23:51.679Z,7.60
2022-11-03T08:25:59.054Z,7.53
2022-11-03T08:28:06.082Z,7.60
2022-11-03T08:30:13.981Z,7.30
2022-11-03T08:32:21.215Z,7.03
2022-11-03T08:34:28.703Z,7.13
2022-11-03T08:36:36.041Z,7.82
2022-11-03T08:38:45.473Z,6.90
2022-11-03T08:40:55.342Z,8.48
2022-11-03T08:43:04.136Z,7.72
2022-11-03T08:45:12.292Z,8.02
2022-11-03T08:47:20.138Z,7.20
2022-11-03T08:49:27.833Z,7.70
2022-11-03T08:51:36.988Z,8.00
2022-11-03T08:53:51.669Z,7.93
2022-11-03T08:55:59.361Z,7.85
2022-11-03T08:58:07.171Z,7.50
2022-11-03T09:00:16.079Z,7.82
2022-11-03T09:02:23.252Z,7.75
2022-11-03T09:04:30.748Z,7.28
2022-11-03T09:06:38.035Z,7.53
2022-11-03T09:11:14.413Z,7.85
2022-11-03T09:13:21.751Z,7.75
2022-11-03T09:15:28.778Z,7.80
2022-11-03T09:17:38.474Z,7.53
2022-11-03T09:19:47.645Z,7.47
2022-11-03T09:21:55.086Z,8.05
2022-11-03T09:24:02.064Z,8.00
2022-11-03T09:26:09.867Z,8.18
2022-11-03T09:28:19.238Z,7.80
2022-11-03T09:30:27.137Z,8.10
2022-11-03T09:32:34.218Z,8.15
2022-11-03T09:34:41.655Z,8.23
2022-11-03T09:36:53.108Z,8.48
2022-11-03T09:39:01.076Z,8.65
2022-11-03T09:41:18.744Z,8.02
2022-11-03T09:43:36.083Z,8.07
2022-11-03T09:45:43.366Z,7.68
2022-11-03T09:47:50.908Z,8.13
2022-11-03T09:49:58.705Z,7.70
2022-11-03T09:52:07.165Z,8.23
2022-11-03T09:54:18.083Z,7.90
2022-11-03T09:56:28.312Z,7.88
2022-11-03T09:58:37.728Z,8.60
2022-11-03T10:00:45.829Z,7.90
2022-11-03T10:02:53.722Z,8.18
2022-11-03T10:05:08.247Z,8.88
2022-11-03T10:07:17.404Z,8.73
2022-11-03T10:09:25.612Z,9.00
2022-11-03T10:11:33.098Z,8.63
2022-11-03T10:13:44.685Z,8.70
2022-11-03T10:15:51.967Z,8.77
2022-11-03T10:18:00.276Z,9.00
2022-11-03T10:20:10.274Z,8.95
2022-11-03T10:22:18.017Z,8.93
2022-11-03T10:24:25.417Z,8.40
2022-11-03T10:26:38.475Z,9.48
2022-11-03T10:29:01.990Z,9.75
2022-11-03T10:31:12.185Z,9.95
2022-11-03T10:33:35.044Z,11.93
2022-11-03T10:35:42.939Z,14.75
2022-11-03T10:37:50.074Z,16.67
2022-11-03T10:39:59.299Z,16.80
2022-11-03T10:42:06.582Z,15.35
2022-11-03T10:44:22.431Z,14.20
2022-11-03T10:46:49.554Z,13.60
2022-11-03T10:55:33.620Z,12.48
2022-11-03T10:57:41.654Z,15.68
2022-11-03T10:59:53.042Z,13.52
2022-11-03T11:02:02.072Z,14.52
2022-11-03T11:04:09.625Z,14.75
2022-11-03T11:06:24.929Z,14.40
2022-11-03T11:08:32.306Z,14.27
2022-11-03T11:10:40.057Z,14.75
2022-11-03T11:13:08.786Z,15.30
2022-11-03T11:15:42.953Z,15.63
2022-11-03T11:17:54.082Z,14.93
2022-11-03T11:20:31.571Z,16.77
2022-11-03T11:22:38.550Z,16.88
2022-11-03T11:25:02.370Z,16.83
2022-11-03T11:27:47.951Z,16.77
2022-11-03T11:29:55.391Z,17.73
2022-11-03T11:32:24.126Z,18.73
2022-11-03T11:34:44.114Z,18.80
2022-11-03T11:37:11.923Z,19.35
2022-11-03T11:39:48.748Z,18.52
2022-11-03T11:42:14.853Z,19.52
2022-11-03T11:44:54.517Z,20.50
2022-11-03T11:47:03.798Z,19.55
2022-11-03T11:49:21.681Z,19.10
2022-11-03T11:51:29.777Z,18.70
2022-11-03T11:53:41.214Z,19.55
2022-11-03T11:55:57.151Z,18.90
2022-11-03T11:58:06.483Z,18.98
2022-11-03T12:00:23.445Z,19.15
2022-11-03T12:02:34.266Z,18.55
2022-11-03T12:04:42.009Z,19.85
2022-11-03T12:06:49.086Z,19.52
2022-11-03T12:09:09.882Z,21.10
2022-11-03T12:11:17.410Z,21.50
2022-11-03T12:13:52.368Z,23.02
2022-11-03T12:16:00.564Z,22.83
2022-11-03T12:18:40.834Z,22.85
2022-11-03T12:20:50.664Z,23.50
2022-11-03T12:22:57.744Z,23.20
2022-11-03T12:25:09.482Z,22.55
2022-11-03T12:27:44.770Z,21.90
2022-11-03T12:29:52.574Z,21.35
2022-11-03T12:31:59.548Z,21.88
2022-11-03T12:34:08.616Z,21.92
2022-11-03T12:36:15.742Z,21.95
2022-11-03T12:38:23.037Z,21.55
2022-11-03T12:40:30.372Z,22.52
2022-11-03T12:42:37.914Z,21.48
2022-11-03T12:44:44.885Z,20.73
2022-11-03T12:46:52.175Z,21.95
2022-11-03T12:48:59.136Z,21.65
2022-11-03T12:51:08.686Z,21.63
2022-11-03T12:53:15.817Z,21.92
2022-11-03T12:55:22.968Z,22.30
2022-11-03T12:57:30.590Z,22.92
2022-11-03T12:59:37.772Z,21.50
2022-11-03T13:01:45.241Z,22.77
2022-11-03T13:03:52.339Z,21.67
2022-11-03T13:06:00.119Z,22.48
2022-11-03T13:08:09.378Z,23.00
2022-11-03T13:10:17.218Z,22.30
2022-11-03T13:12:37.759Z,22.85
2022-11-03T13:14:46.313Z,22.70
2022-11-03T13:16:55.655Z,23.55
2022-11-03T13:19:03.500Z,23.17
2022-11-03T13:21:10.829Z,23.67
2022-11-03T13:23:23.117Z,35.75
2022-11-03T13:25:31.447Z,36.30
2022-11-03T13:27:39.148Z,34.53
2022-11-03T13:29:46.117Z,32.45
2022-11-03T13:31:53.555Z,36.78
2022-11-03T13:34:00.887Z,38.97
2022-11-03T13:36:08.848Z,37.83
2022-11-03T13:38:16.021Z,38.83
2022-11-03T13:42:52.606Z,34.95
2022-11-03T13:45:00.625Z,33.42
2022-11-03T13:47:11.516Z,32.65
2022-11-03T13:51:47.063Z,34.92
2022-11-03T13:56:23.522Z,34.50
2022-11-03T14:00:57.962Z,36.17
2022-11-03T14:05:32.384Z,33.33
2022-11-03T14:07:39.612Z,32.40
2022-11-03T14:09:46.798Z,31.90
2022-11-03T14:12:12.308Z,31.48
2022-11-03T14:14:19.489Z,32.22
2022-11-03T14:16:27.056Z,33.17
2022-11-03T14:18:34.196Z,31.08
2022-11-03T14:20:41.498Z,32.15
2022-11-03T14:22:48.727Z,32.25
2022-11-03T14:24:56.472Z,31.70
2022-11-03T14:27:05.600Z,31.48
2022-11-03T14:29:12.782Z,30.63
2022-11-03T14:31:19.992Z,31.55
2022-11-03T14:33:27.385Z,31.85
2022-11-03T14:35:34.586Z,31.38
2022-11-03T14:37:42.131Z,31.13
2022-11-03T14:39:49.255Z,31.63
2022-11-03T14:42:07.343Z,31.63
2022-11-03T14:44:16.110Z,30.95
2022-11-03T14:46:23.796Z,30.90
2022-11-03T14:48:31.088Z,29.35
2022-11-03T14:50:39.293Z,30.75
2022-11-03T14:52:49.188Z,31.02
2022-11-03T14:54:56.626Z,31.67
2022-11-03T14:57:03.857Z,31.75
2022-11-03T14:59:11.305Z,31.80
2022-11-03T15:01:20.393Z,30.63
2022-11-03T15:03:28.065Z,31.17
2022-11-03T15:05:47.231Z,31.30
2022-11-03T15:07:54.871Z,30.50
2022-11-03T15:10:02.206Z,31.17
2022-11-03T15:12:10.007Z,31.98
2022-11-03T15:14:17.131Z,31.25
2022-11-03T15:16:26.517Z,33.13
2022-11-03T15:18:34.004Z,42.60
2022-11-03T15:20:41.122Z,51.55
2022-11-03T15:25:18.693Z,40.58
2022-11-03T15:27:29.457Z,36.17
2022-11-03T15:29:36.998Z,38.53
2022-11-03T15:31:48.186Z,36.38
2022-11-03T15:33:55.764Z,35.03
2022-11-03T15:36:08.449Z,34.97
2022-11-03T15:38:15.810Z,34.65
2022-11-03T15:40:23.147Z,33.80
2022-11-03T15:42:30.327Z,32.22
2022-11-03T15:44:37.919Z,31.33
2022-11-03T15:46:46.687Z,33.15
2022-11-03T15:48:55.508Z,34.05
2022-11-03T15:51:02.588Z,33.05
2022-11-03T15:53:09.973Z,32.58
2022-11-03T15:55:17.360Z,32.83
2022-11-03T15:57:24.951Z,32.92
2022-11-03T15:59:32.131Z,32.65
2022-11-03T16:01:39.704Z,34.00
2022-11-03T16:03:49.007Z,33.75
2022-11-03T16:05:56.748Z,33.70
2022-11-03T16:08:03.879Z,32.38
2022-11-03T16:10:11.983Z,32.03
2022-11-03T16:12:19.012Z,32.85
2022-11-03T16:14:27.038Z,33.90
2022-11-03T16:16:34.144Z,34.72
2022-11-03T16:18:41.733Z,34.47
2022-11-03T16:20:50.655Z,35.22
2022-11-03T16:22:58.200Z,36.15
2022-11-03T16:25:12.118Z,37.00
2022-11-03T16:27:21.829Z,36.53
2022-11-03T16:29:28.904Z,34.67
2022-11-03T16:31:36.243Z,33.35
2022-11-03T16:33:43.473Z,34.05
2022-11-03T16:35:52.702Z,33.15
2022-11-03T16:37:59.992Z,33.75
2022-11-03T16:40:08.002Z,31.92
2022-11-03T16:42:15.021Z,33.03
2022-11-03T16:44:22.402Z,34.42
2022-11-03T16:46:29.483Z,35.85
2022-11-03T16:48:36.770Z,33.85
2022-11-03T16:50:44.945Z,33.20
2022-11-03T16:52:54.253Z,32.75
2022-11-03T16:55:01.280Z,32.17
2022-11-03T16:57:08.870Z,31.60
2022-11-03T16:59:16.106Z,31.33
2022-11-03T17:01:23.593Z,29.65
2022-11-03T17:03:30.927Z,30.17
2022-11-03T17:05:39.440Z,30.40
2022-11-03T17:07:52.868Z,29.73
2022-11-03T17:10:03.075Z,28.92
2022-11-03T17:12:10.559Z,28.38
2022-11-03T17:14:18.255Z,28.73
2022-11-03T17:16:25.230Z,31.48
2022-11-03T17:18:32.873Z,32.22
2022-11-03T17:20:39.901Z,33.95
2022-11-03T17:22:48.641Z,32.80
2022-11-03T17:24:55.600Z,32.50
2022-11-03T17:27:07.333Z,31.67
2022-11-03T17:29:20.506Z,32.38
2022-11-03T17:31:28.917Z,31.95
2022-11-03T17:33:36.664Z,31.30
2022-11-03T17:35:46.611Z,29.30
2022-11-03T17:37:54.815Z,29.90
2022-11-03T17:40:01.897Z,30.00
2022-11-03T17:42:18.904Z,29.73
2022-11-03T17:44:25.931Z,29.15
2022-11-03T17:46:33.625Z,30.15
2022-11-03T17:48:41.215Z,31.88
2022-11-03T17:50:51.367Z,33.83
2022-11-03T17:52:58.806Z,31.83
2022-11-03T17:55:10.289Z,31.08
2022-11-03T17:57:21.925Z,29.67
2022-11-03T17:59:29.668Z,30.60
2022-11-03T18:01:37.300Z,29.60
2022-11-03T18:03:44.593Z,30.17
2022-11-03T18:05:51.975Z,29.90
2022-11-03T18:07:59.880Z,29.33
2022-11-03T18:10:07.425Z,31.00
2022-11-03T18:12:36.104Z,29.00
2022-11-03T18:14:43.184Z,31.52
2022-11-03T18:16:50.980Z,29.80
2022-11-03T18:18:59.031Z,26.85
2022-11-03T18:21:07.442Z,27.92
2022-11-03T18:23:19.284Z,28.63
2022-11-03T18:27:34.876Z,30.20
2022-11-03T18:29:42.266Z,30.30
2022-11-03T18:31:51.388Z,31.17
2022-11-03T18:33:58.775Z,30.27
2022-11-03T18:36:08.927Z,32.47
2022-11-03T18:38:17.850Z,35.85
2022-11-03T18:40:25.134Z,36.50
2022-11-03T18:42:34.262Z,33.38
2022-11-03T18:44:42.465Z,32.83
2022-11-03T18:46:49.854Z,33.50
2022-11-03T18:48:57.034Z,33.20
2022-11-03T18:51:04.317Z,33.22
2022-11-03T18:53:16.465Z,31.70
2022-11-03T18:55:23.801Z,31.83
2022-11-03T18:57:32.724Z,31.38
2022-11-03T18:59:43.079Z,28.65
2022-11-03T19:01:50.623Z,30.40
2022-11-03T19:03:59.233Z,29.98
2022-11-03T19:06:06.570Z,31.42
2022-11-03T19:08:19.384Z,31.42
2022-11-03T19:10:26.718Z,31.67
2022-11-03T19:12:39.045Z,31.75
2022-11-03T19:14:48.915Z,32.05
2022-11-03T19:19:25.199Z,33.05
2022-11-03T19:21:32.736Z,34.20
2022-11-03T19:23:39.759Z,33.38
2022-11-03T19:25:47.864Z,34.85
2022-11-03T19:27:57.041Z,34.90
2022-11-03T19:30:05.555Z,35.15
2022-11-03T19:32:18.776Z,35.88
2022-11-03T19:34:29.801Z,36.92
2022-11-03T19:36:36.981Z,37.30
2022-11-03T19:38:44.775Z,36.47
2022-11-03T19:41:08.240Z,37.30
2022-11-03T19:43:17.212Z,35.08
2022-11-03T19:45:25.419Z,35.63
2022-11-03T19:47:36.645Z,34.97
2022-11-03T19:49:43.621Z,36.72
2022-11-03T19:51:50.906Z,36.38
2022-11-03T19:53:57.934Z,34.80
2022-11-03T19:56:05.474Z,35.83
2022-11-03T19:58:19.670Z,34.40
2022-11-03T20:00:27.266Z,35.05
2022-11-03T20:02:34.761Z,31.98
2022-11-03T20:04:45.414Z,34.53
2022-11-03T20:06:52.696Z,34.63
2022-11-03T20:09:00.390Z,35.33
2022-11-03T20:11:09.261Z,34.05
2022-11-03T20:13:21.461Z,35.55
2022-11-03T20:15:28.436Z,33.38
2022-11-03T20:17:35.670Z,33.60
2022-11-03T20:19:43.108Z,34.00
2022-11-03T20:21:50.698Z,34.63
2022-11-03T20:23:57.932Z,34.75
2022-11-03T20:26:05.625Z,33.95
2022-11-03T20:28:22.791Z,37.17
2022-11-03T20:30:31.510Z,38.15
2022-11-03T20:32:38.793Z,34.70
2022-11-03T20:34:47.562Z,33.00
2022-11-03T20:36:54.488Z,34.58
2022-11-03T20:39:02.180Z,35.42
2022-11-03T20:41:17.044Z,35.53
2022-11-03T20:43:30.215Z,37.63
2022-11-03T20:45:37.499Z,36.45
2022-11-03T20:47:48.163Z,37.28
2022-11-03T20:49:55.806Z,36.30
2022-11-03T20:52:02.985Z,38.03
2022-11-03T20:54:17.645Z,36.70
2022-11-03T20:56:27.024Z,36.67
2022-11-03T20:58:36.152Z,38.35
2022-11-03T21:00:44.357Z,38.22
2022-11-03T21:02:52.153Z,37.67
2022-11-03T21:04:59.645Z,35.95
2022-11-03T21:07:06.677Z,36.88
2022-11-03T21:09:16.257Z,35.72
2022-11-03T21:11:28.431Z,36.00
2022-11-03T21:13:37.534Z,34.70
2022-11-03T21:16:22.973Z,34.65
2022-11-03T21:18:45.554Z,34.10
2022-11-03T21:20:52.736Z,34.97
2022-11-03T21:23:01.046Z,34.45
2022-11-03T21:25:10.068Z,33.97
2022-11-03T21:27:19.041Z,33.28
2022-11-03T21:29:45.707Z,33.90
2022-11-03T21:31:55.524Z,33.30
2022-11-03T21:34:02.602Z,33.28
2022-11-03T21:36:10.757Z,33.97
2022-11-03T21:38:18.759Z,33.30
2022-11-03T21:40:26.400Z,31.63
2022-11-03T21:42:49.863Z,33.47
2022-11-03T21:44:59.554Z,31.80
2022-11-03T21:47:06.583Z,32.90
2022-11-03T21:49:30.762Z,32.15
2022-11-03T21:51:37.790Z,31.23
2022-11-03T21:53:44.973Z,32.50
2022-11-03T21:55:52.410Z,33.13
2022-11-03T21:57:59.847Z,32.30
2022-11-03T22:00:09.641Z,31.27
2022-11-03T22:02:17.296Z,31.35
2022-11-03T22:04:25.490Z,32.70
2022-11-03T22:06:33.028Z,33.42
2022-11-03T22:08:41.081Z,30.77
2022-11-03T22:10:48.467Z,31.45
2022-11-03T22:12:55.443Z,33.42
2022-11-03T22:15:19.215Z,33.40
2022-11-03T22:17:28.033Z,32.65
2022-11-03T22:19:54.211Z,33.55
2022-11-03T22:22:23.820Z,35.08
2022-11-03T22:24:47.435Z,32.83
2022-11-03T22:27:00.913Z,32.97
2022-11-03T22:29:24.940Z,34.55
2022-11-03T22:31:43.898Z,35.05
2022-11-03T22:34:09.718Z,37.70
2022-11-03T22:36:29.544Z,36.10
2022-11-03T22:38:53.570Z,40.13
2022-11-03T22:41:17.597Z,42.85
2022-11-03T22:43:40.754Z,45.35
2022-11-03T22:45:55.667Z,45.40
2022-11-03T22:48:02.852Z,54.53
2022-11-03T22:50:12.556Z,54.72
2022-11-03T22:52:19.570Z,56.20
2022-11-03T22:54:25.570Z,56.33
2022-11-03T22:56:33.726Z,54.35
2022-11-03T22:58:41.370Z,54.13
2022-11-03T23:00:48.637Z,55.67
2022-11-03T23:02:57.830Z,53.05
2022-11-03T23:05:05.216Z,50.97
2022-11-03T23:07:14.454Z,49.70
2022-11-03T23:09:21.627Z,49.25
2022-11-03T23:11:31.984Z,48.08
2022-11-03T23:13:39.730Z,50.58
2022-11-03T23:15:47.217Z,48.42
2022-11-03T23:18:10.731Z,46.63
2022-11-03T23:20:34.397Z,44.58
2022-11-03T23:22:43.423Z,47.50
2022-11-03T23:25:01.464Z,50.17
2022-11-03T23:27:09.307Z,46.38
2022-11-03T23:29:17.615Z,42.70
2022-11-03T23:31:24.661Z,42.42
2022-11-03T23:33:32.141Z,44.40
2022-11-03T23:35:40.366Z,42.92
2022-11-03T23:37:49.618Z,46.13
2022-11-03T23:39:56.750Z,49.35
2022-11-03T23:42:04.237Z,72.13
2022-11-03T23:44:12.900Z,75.93
2022-11-03T23:46:38.670Z,68.53
2022-11-03T23:48:47.541Z,68.38
2022-11-03T23:50:56.207Z,73.82
2022-11-03T23:53:04.976Z,71.13
2022-11-03T23:55:13.131Z,55.53
2022-11-03T23:57:37.004Z,49.60
